sensor_id;sensor_type;location;lat;lon;timestamp;P1;durP1;ratioP1;P2;durP2;ratioP2
57313;SDS011;53202;50.976;18.216;2022-07-03T00:01:01;11.70;;;7.20;;
57313;SDS011;53202;50.976;18.216;2022-07-03T00:03:41;8.40;;;7.10;;
57313;SDS011;53202;50.976;18.216;2022-07-03T00:06:22;9.80;;;7.20;;
57313;SDS011;53202;50.976;18.216;2022-07-03T00:09:03;15.00;;;8.50;;
57313;SDS011;53202;50.976;18.216;2022-07-03T00:11:42;10.30;;;7.60;;
57313;SDS011;53202;50.976;18.216;2022-07-03T00:14:23;11.40;;;8.10;;
57313;SDS011;53202;50.976;18.216;2022-07-03T00:17:03;9.40;;;8.00;;
57313;SDS011;53202;50.976;18.216;2022-07-03T00:19:43;12.70;;;8.40;;
57313;SDS011;53202;50.976;18.216;2022-07-03T00:22:24;9.40;;;7.20;;
57313;SDS011;53202;50.976;18.216;2022-07-03T00:25:05;11.10;;;7.60;;
57313;SDS011;53202;50.976;18.216;2022-07-03T00:27:44;8.60;;;7.70;;
57313;SDS011;53202;50.976;18.216;2022-07-03T00:30:24;12.30;;;7.60;;
57313;SDS011;53202;50.976;18.216;2022-07-03T00:33:05;11.30;;;7.50;;
57313;SDS011;53202;50.976;18.216;2022-07-03T00:35:45;8.40;;;6.30;;
57313;SDS011;53202;50.976;18.216;2022-07-03T00:38:25;8.70;;;5.90;;
57313;SDS011;53202;50.976;18.216;2022-07-03T00:41:09;8.50;;;6.10;;
57313;SDS011;53202;50.976;18.216;2022-07-03T00:43:59;9.30;;;6.40;;
57313;SDS011;53202;50.976;18.216;2022-07-03T00:46:40;8.50;;;6.60;;
57313;SDS011;53202;50.976;18.216;2022-07-03T00:49:19;8.00;;;5.90;;
57313;SDS011;53202;50.976;18.216;2022-07-03T00:52:00;6.60;;;5.50;;
57313;SDS011;53202;50.976;18.216;2022-07-03T00:54:52;9.00;;;6.50;;
57313;SDS011;53202;50.976;18.216;2022-07-03T00:57:30;7.30;;;5.30;;
57313;SDS011;53202;50.976;18.216;2022-07-03T01:00:11;9.10;;;6.20;;
57313;SDS011;53202;50.976;18.216;2022-07-03T01:03:01;10.90;;;6.70;;
57313;SDS011;53202;50.976;18.216;2022-07-03T01:05:43;10.60;;;6.40;;
57313;SDS011;53202;50.976;18.216;2022-07-03T01:08:33;10.30;;;6.10;;
57313;SDS011;53202;50.976;18.216;2022-07-03T01:17:20;8.30;;;7.10;;
57313;SDS011;53202;50.976;18.216;2022-07-03T01:20:03;9.70;;;7.10;;
57313;SDS011;53202;50.976;18.216;2022-07-03T01:22:44;11.00;;;7.30;;
57313;SDS011;53202;50.976;18.216;2022-07-03T01:25:24;13.30;;;7.60;;
57313;SDS011;53202;50.976;18.216;2022-07-03T01:28:08;12.50;;;7.60;;
57313;SDS011;53202;50.976;18.216;2022-07-03T01:30:46;12.40;;;7.80;;
57313;SDS011;53202;50.976;18.216;2022-07-03T01:33:25;11.00;;;7.90;;
57313;SDS011;53202;50.976;18.216;2022-07-03T01:36:05;11.10;;;7.70;;
57313;SDS011;53202;50.976;18.216;2022-07-03T01:38:45;16.80;;;8.10;;
57313;SDS011;53202;50.976;18.216;2022-07-03T01:41:25;15.70;;;8.40;;
57313;SDS011;53202;50.976;18.216;2022-07-03T01:44:06;14.00;;;8.50;;
57313;SDS011;53202;50.976;18.216;2022-07-03T01:46:46;13.80;;;8.40;;
57313;SDS011;53202;50.976;18.216;2022-07-03T01:49:26;13.10;;;7.70;;
57313;SDS011;53202;50.976;18.216;2022-07-03T01:52:06;12.30;;;7.70;;
57313;SDS011;53202;50.976;18.216;2022-07-03T01:54:47;12.40;;;7.20;;
57313;SDS011;53202;50.976;18.216;2022-07-03T01:57:32;16.30;;;8.50;;
57313;SDS011;53202;50.976;18.216;2022-07-03T02:00:20;11.10;;;8.90;;
57313;SDS011;53202;50.976;18.216;2022-07-03T02:03:02;13.20;;;9.30;;
57313;SDS011;53202;50.976;18.216;2022-07-03T02:05:41;13.50;;;9.10;;
57313;SDS011;53202;50.976;18.216;2022-07-03T02:08:23;12.50;;;9.40;;
57313;SDS011;53202;50.976;18.216;2022-07-03T02:11:23;12.20;;;9.10;;
57313;SDS011;53202;50.976;18.216;2022-07-03T02:14:11;15.20;;;9.40;;
57313;SDS011;53202;50.976;18.216;2022-07-03T02:17:00;12.40;;;9.50;;
57313;SDS011;53202;50.976;18.216;2022-07-03T02:19:43;10.80;;;9.50;;
57313;SDS011;53202;50.976;18.216;2022-07-03T02:22:24;16.10;;;10.20;;
57313;SDS011;53202;50.976;18.216;2022-07-03T02:25:13;25.40;;;10.50;;
57313;SDS011;53202;50.976;18.216;2022-07-03T02:28:03;16.70;;;11.10;;
57313;SDS011;53202;50.976;18.216;2022-07-03T02:30:42;22.20;;;11.40;;
57313;SDS011;53202;50.976;18.216;2022-07-03T02:33:23;24.00;;;11.50;;
57313;SDS011;53202;50.976;18.216;2022-07-03T02:36:01;18.20;;;13.90;;
57313;SDS011;53202;50.976;18.216;2022-07-03T02:38:43;18.40;;;13.00;;
57313;SDS011;53202;50.976;18.216;2022-07-03T02:41:24;14.50;;;13.00;;
57313;SDS011;53202;50.976;18.216;2022-07-03T02:44:04;15.40;;;13.20;;
57313;SDS011;53202;50.976;18.216;2022-07-03T02:47:00;14.60;;;12.40;;
57313;SDS011;53202;50.976;18.216;2022-07-03T02:49:53;15.40;;;12.20;;
57313;SDS011;53202;50.976;18.216;2022-07-03T02:52:44;15.30;;;12.20;;
57313;SDS011;53202;50.976;18.216;2022-07-03T02:55:40;16.00;;;12.40;;
57313;SDS011;53202;50.976;18.216;2022-07-03T02:58:32;16.80;;;12.60;;
57313;SDS011;53202;50.976;18.216;2022-07-03T03:04:26;14.30;;;11.70;;
57313;SDS011;53202;50.976;18.216;2022-07-03T03:07:08;16.20;;;11.60;;
57313;SDS011;53202;50.976;18.216;2022-07-03T03:09:47;17.00;;;12.40;;
57313;SDS011;53202;50.976;18.216;2022-07-03T03:12:35;13.20;;;11.70;;
57313;SDS011;53202;50.976;18.216;2022-07-03T03:15:16;16.80;;;13.40;;
57313;SDS011;53202;50.976;18.216;2022-07-03T03:18:00;15.90;;;13.50;;
57313;SDS011;53202;50.976;18.216;2022-07-03T03:20:37;14.90;;;13.40;;
57313;SDS011;53202;50.976;18.216;2022-07-03T03:26:21;19.50;;;17.50;;
57313;SDS011;53202;50.976;18.216;2022-07-03T03:28:58;22.70;;;18.40;;
57313;SDS011;53202;50.976;18.216;2022-07-03T03:31:38;22.30;;;19.50;;
57313;SDS011;53202;50.976;18.216;2022-07-03T03:34:18;21.20;;;18.80;;
57313;SDS011;53202;50.976;18.216;2022-07-03T03:36:59;27.10;;;21.80;;
57313;SDS011;53202;50.976;18.216;2022-07-03T03:39:39;24.00;;;20.00;;
57313;SDS011;53202;50.976;18.216;2022-07-03T03:42:19;23.60;;;21.40;;
57313;SDS011;53202;50.976;18.216;2022-07-03T03:44:59;20.80;;;18.60;;
57313;SDS011;53202;50.976;18.216;2022-07-03T03:47:40;23.90;;;19.10;;
57313;SDS011;53202;50.976;18.216;2022-07-03T03:50:20;23.00;;;19.10;;
57313;SDS011;53202;50.976;18.216;2022-07-03T03:53:00;24.10;;;19.10;;
57313;SDS011;53202;50.976;18.216;2022-07-03T03:58:41;27.40;;;20.60;;
57313;SDS011;53202;50.976;18.216;2022-07-03T04:01:21;23.60;;;20.50;;
57313;SDS011;53202;50.976;18.216;2022-07-03T04:04:01;23.40;;;21.00;;
57313;SDS011;53202;50.976;18.216;2022-07-03T04:06:42;23.20;;;19.50;;
57313;SDS011;53202;50.976;18.216;2022-07-03T04:09:22;22.40;;;17.90;;
57313;SDS011;53202;50.976;18.216;2022-07-03T04:12:02;20.40;;;17.70;;
57313;SDS011;53202;50.976;18.216;2022-07-03T04:14:43;19.40;;;17.00;;
57313;SDS011;53202;50.976;18.216;2022-07-03T04:17:23;27.00;;;18.20;;
57313;SDS011;53202;50.976;18.216;2022-07-03T04:20:06;21.80;;;16.20;;
57313;SDS011;53202;50.976;18.216;2022-07-03T04:22:46;20.30;;;16.00;;
57313;SDS011;53202;50.976;18.216;2022-07-03T04:25:26;22.70;;;16.20;;
57313;SDS011;53202;50.976;18.216;2022-07-03T04:28:06;20.40;;;14.40;;
57313;SDS011;53202;50.976;18.216;2022-07-03T04:30:47;18.90;;;15.20;;
57313;SDS011;53202;50.976;18.216;2022-07-03T04:33:27;18.00;;;15.20;;
57313;SDS011;53202;50.976;18.216;2022-07-03T04:36:07;21.30;;;13.80;;
57313;SDS011;53202;50.976;18.216;2022-07-03T04:38:48;21.50;;;14.70;;
57313;SDS011;53202;50.976;18.216;2022-07-03T04:41:28;24.40;;;15.30;;
57313;SDS011;53202;50.976;18.216;2022-07-03T04:44:08;21.30;;;15.40;;
57313;SDS011;53202;50.976;18.216;2022-07-03T04:46:49;22.50;;;15.60;;
57313;SDS011;53202;50.976;18.216;2022-07-03T04:49:29;19.60;;;15.50;;
57313;SDS011;53202;50.976;18.216;2022-07-03T04:52:09;20.70;;;15.80;;
57313;SDS011;53202;50.976;18.216;2022-07-03T04:54:49;17.70;;;16.10;;
57313;SDS011;53202;50.976;18.216;2022-07-03T04:57:30;16.50;;;13.50;;
57313;SDS011;53202;50.976;18.216;2022-07-03T05:00:10;22.40;;;14.50;;
57313;SDS011;53202;50.976;18.216;2022-07-03T05:02:50;17.00;;;15.30;;
57313;SDS011;53202;50.976;18.216;2022-07-03T05:05:31;17.20;;;13.30;;
57313;SDS011;53202;50.976;18.216;2022-07-03T05:08:11;13.00;;;10.90;;
57313;SDS011;53202;50.976;18.216;2022-07-03T05:10:51;12.60;;;11.00;;
57313;SDS011;53202;50.976;18.216;2022-07-03T05:13:31;14.00;;;11.60;;
57313;SDS011;53202;50.976;18.216;2022-07-03T05:16:12;11.70;;;10.50;;
57313;SDS011;53202;50.976;18.216;2022-07-03T05:18:52;12.50;;;11.20;;
57313;SDS011;53202;50.976;18.216;2022-07-03T05:21:33;11.50;;;10.40;;
57313;SDS011;53202;50.976;18.216;2022-07-03T05:24:13;10.70;;;9.70;;
57313;SDS011;53202;50.976;18.216;2022-07-03T05:26:53;10.40;;;9.20;;
57313;SDS011;53202;50.976;18.216;2022-07-03T05:29:33;11.90;;;8.70;;
57313;SDS011;53202;50.976;18.216;2022-07-03T05:32:14;13.70;;;6.80;;
57313;SDS011;53202;50.976;18.216;2022-07-03T05:34:54;12.70;;;7.40;;
57313;SDS011;53202;50.976;18.216;2022-07-03T05:37:34;9.90;;;6.80;;
57313;SDS011;53202;50.976;18.216;2022-07-03T05:40:14;9.00;;;5.80;;
57313;SDS011;53202;50.976;18.216;2022-07-03T05:42:55;7.80;;;5.80;;
57313;SDS011;53202;50.976;18.216;2022-07-03T05:45:35;11.40;;;5.50;;
57313;SDS011;53202;50.976;18.216;2022-07-03T05:48:16;11.60;;;5.30;;
57313;SDS011;53202;50.976;18.216;2022-07-03T05:50:56;7.70;;;5.90;;
57313;SDS011;53202;50.976;18.216;2022-07-03T05:53:36;8.30;;;5.40;;
57313;SDS011;53202;50.976;18.216;2022-07-03T05:56:16;6.60;;;5.10;;
57313;SDS011;53202;50.976;18.216;2022-07-03T05:58:57;7.50;;;4.70;;
57313;SDS011;53202;50.976;18.216;2022-07-03T06:01:37;15.70;;;5.40;;
57313;SDS011;53202;50.976;18.216;2022-07-03T06:04:17;7.00;;;4.50;;
57313;SDS011;53202;50.976;18.216;2022-07-03T06:06:57;7.10;;;4.60;;
57313;SDS011;53202;50.976;18.216;2022-07-03T06:09:38;10.90;;;4.20;;
57313;SDS011;53202;50.976;18.216;2022-07-03T06:12:18;5.30;;;3.20;;
57313;SDS011;53202;50.976;18.216;2022-07-03T06:14:58;4.40;;;2.70;;
57313;SDS011;53202;50.976;18.216;2022-07-03T06:17:39;9.40;;;3.50;;
57313;SDS011;53202;50.976;18.216;2022-07-03T06:20:21;5.80;;;3.00;;
57313;SDS011;53202;50.976;18.216;2022-07-03T06:23:02;2.40;;;1.80;;
57313;SDS011;53202;50.976;18.216;2022-07-03T06:25:42;6.30;;;2.40;;
57313;SDS011;53202;50.976;18.216;2022-07-03T06:28:22;8.00;;;2.40;;
57313;SDS011;53202;50.976;18.216;2022-07-03T06:31:03;6.90;;;2.10;;
57313;SDS011;53202;50.976;18.216;2022-07-03T06:33:45;4.20;;;2.00;;
57313;SDS011;53202;50.976;18.216;2022-07-03T06:36:23;16.00;;;2.10;;
57313;SDS011;53202;50.976;18.216;2022-07-03T06:39:04;15.10;;;1.80;;
57313;SDS011;53202;50.976;18.216;2022-07-03T06:41:44;3.20;;;1.70;;
57313;SDS011;53202;50.976;18.216;2022-07-03T06:44:24;2.70;;;1.60;;
57313;SDS011;53202;50.976;18.216;2022-07-03T06:47:04;3.00;;;1.40;;
57313;SDS011;53202;50.976;18.216;2022-07-03T06:49:45;4.20;;;1.50;;
57313;SDS011;53202;50.976;18.216;2022-07-03T06:52:25;2.90;;;1.60;;
57313;SDS011;53202;50.976;18.216;2022-07-03T06:55:05;5.90;;;1.10;;
57313;SDS011;53202;50.976;18.216;2022-07-03T06:57:46;3.70;;;1.70;;
57313;SDS011;53202;50.976;18.216;2022-07-03T07:00:26;4.30;;;1.00;;
57313;SDS011;53202;50.976;18.216;2022-07-03T07:03:06;8.60;;;1.50;;
57313;SDS011;53202;50.976;18.216;2022-07-03T07:05:46;6.60;;;1.50;;
57313;SDS011;53202;50.976;18.216;2022-07-03T07:08:27;4.40;;;1.50;;
57313;SDS011;53202;50.976;18.216;2022-07-03T07:11:07;3.80;;;1.50;;
57313;SDS011;53202;50.976;18.216;2022-07-03T07:13:47;6.40;;;1.40;;
57313;SDS011;53202;50.976;18.216;2022-07-03T07:16:28;3.20;;;1.20;;
57313;SDS011;53202;50.976;18.216;2022-07-03T07:19:08;1.60;;;1.10;;
57313;SDS011;53202;50.976;18.216;2022-07-03T07:21:48;2.80;;;0.90;;
57313;SDS011;53202;50.976;18.216;2022-07-03T07:24:29;4.50;;;1.10;;
57313;SDS011;53202;50.976;18.216;2022-07-03T07:27:09;5.60;;;1.30;;
57313;SDS011;53202;50.976;18.216;2022-07-03T07:29:49;2.20;;;1.30;;
57313;SDS011;53202;50.976;18.216;2022-07-03T07:32:29;2.90;;;1.20;;
57313;SDS011;53202;50.976;18.216;2022-07-03T07:35:10;1.80;;;1.20;;
57313;SDS011;53202;50.976;18.216;2022-07-03T07:37:50;1.70;;;0.90;;
57313;SDS011;53202;50.976;18.216;2022-07-03T07:40:30;1.90;;;1.10;;
57313;SDS011;53202;50.976;18.216;2022-07-03T07:43:11;4.00;;;1.30;;
57313;SDS011;53202;50.976;18.216;2022-07-03T07:45:51;2.60;;;1.20;;
57313;SDS011;53202;50.976;18.216;2022-07-03T07:48:33;3.00;;;1.20;;
57313;SDS011;53202;50.976;18.216;2022-07-03T07:51:12;3.60;;;1.00;;
57313;SDS011;53202;50.976;18.216;2022-07-03T07:53:52;4.60;;;1.10;;
57313;SDS011;53202;50.976;18.216;2022-07-03T07:56:32;2.00;;;1.00;;
57313;SDS011;53202;50.976;18.216;2022-07-03T07:59:13;4.80;;;1.00;;
57313;SDS011;53202;50.976;18.216;2022-07-03T08:01:53;5.10;;;1.20;;
57313;SDS011;53202;50.976;18.216;2022-07-03T08:04:53;2.00;;;1.10;;
57313;SDS011;53202;50.976;18.216;2022-07-03T08:07:53;5.10;;;1.20;;
57313;SDS011;53202;50.976;18.216;2022-07-03T08:10:36;2.50;;;1.10;;
57313;SDS011;53202;50.976;18.216;2022-07-03T08:13:15;1.60;;;0.90;;
57313;SDS011;53202;50.976;18.216;2022-07-03T08:15:54;1.60;;;1.00;;
57313;SDS011;53202;50.976;18.216;2022-07-03T08:18:35;6.50;;;1.20;;
57313;SDS011;53202;50.976;18.216;2022-07-03T08:21:15;2.50;;;1.10;;
57313;SDS011;53202;50.976;18.216;2022-07-03T08:23:55;1.90;;;1.00;;
57313;SDS011;53202;50.976;18.216;2022-07-03T08:26:36;8.10;;;1.20;;
57313;SDS011;53202;50.976;18.216;2022-07-03T08:29:16;2.40;;;1.00;;
57313;SDS011;53202;50.976;18.216;2022-07-03T08:31:56;2.60;;;0.90;;
57313;SDS011;53202;50.976;18.216;2022-07-03T08:34:37;3.40;;;1.40;;
57313;SDS011;53202;50.976;18.216;2022-07-03T08:37:17;2.70;;;1.10;;
57313;SDS011;53202;50.976;18.216;2022-07-03T08:39:57;4.00;;;1.10;;
57313;SDS011;53202;50.976;18.216;2022-07-03T08:42:38;8.20;;;1.20;;
57313;SDS011;53202;50.976;18.216;2022-07-03T08:45:18;3.30;;;1.00;;
57313;SDS011;53202;50.976;18.216;2022-07-03T08:47:58;2.80;;;1.20;;
57313;SDS011;53202;50.976;18.216;2022-07-03T08:50:38;4.90;;;1.20;;
57313;SDS011;53202;50.976;18.216;2022-07-03T08:53:19;1.30;;;0.90;;
57313;SDS011;53202;50.976;18.216;2022-07-03T08:55:59;2.60;;;1.10;;
57313;SDS011;53202;50.976;18.216;2022-07-03T08:58:39;3.60;;;1.40;;
57313;SDS011;53202;50.976;18.216;2022-07-03T09:01:19;2.30;;;1.00;;
57313;SDS011;53202;50.976;18.216;2022-07-03T09:04:00;2.20;;;1.00;;
57313;SDS011;53202;50.976;18.216;2022-07-03T09:06:40;3.70;;;1.10;;
57313;SDS011;53202;50.976;18.216;2022-07-03T09:09:20;1.40;;;0.80;;
57313;SDS011;53202;50.976;18.216;2022-07-03T09:12:01;1.80;;;1.00;;
57313;SDS011;53202;50.976;18.216;2022-07-03T09:14:41;2.60;;;0.90;;
57313;SDS011;53202;50.976;18.216;2022-07-03T09:17:21;2.70;;;1.20;;
57313;SDS011;53202;50.976;18.216;2022-07-03T09:20:02;2.50;;;0.80;;
57313;SDS011;53202;50.976;18.216;2022-07-03T09:22:42;1.70;;;0.90;;
57313;SDS011;53202;50.976;18.216;2022-07-03T09:25:22;3.50;;;1.10;;
57313;SDS011;53202;50.976;18.216;2022-07-03T09:28:02;2.60;;;0.80;;
57313;SDS011;53202;50.976;18.216;2022-07-03T09:31:00;4.20;;;1.20;;
57313;SDS011;53202;50.976;18.216;2022-07-03T09:33:59;3.70;;;1.10;;
57313;SDS011;53202;50.976;18.216;2022-07-03T09:36:46;1.30;;;1.00;;
57313;SDS011;53202;50.976;18.216;2022-07-03T09:39:26;2.20;;;1.00;;
57313;SDS011;53202;50.976;18.216;2022-07-03T09:42:06;1.50;;;1.00;;
57313;SDS011;53202;50.976;18.216;2022-07-03T09:44:44;3.20;;;1.40;;
57313;SDS011;53202;50.976;18.216;2022-07-03T09:47:25;1.40;;;0.90;;
57313;SDS011;53202;50.976;18.216;2022-07-03T09:50:05;2.30;;;1.00;;
57313;SDS011;53202;50.976;18.216;2022-07-03T09:52:46;2.10;;;1.40;;
57313;SDS011;53202;50.976;18.216;2022-07-03T09:55:26;1.80;;;0.90;;
57313;SDS011;53202;50.976;18.216;2022-07-03T09:58:06;2.70;;;1.30;;
57313;SDS011;53202;50.976;18.216;2022-07-03T10:00:46;1.30;;;0.80;;
57313;SDS011;53202;50.976;18.216;2022-07-03T10:03:26;2.50;;;1.10;;
57313;SDS011;53202;50.976;18.216;2022-07-03T10:06:07;2.30;;;1.00;;
57313;SDS011;53202;50.976;18.216;2022-07-03T10:08:47;1.80;;;0.90;;
57313;SDS011;53202;50.976;18.216;2022-07-03T10:11:27;5.70;;;1.40;;
57313;SDS011;53202;50.976;18.216;2022-07-03T10:14:08;3.80;;;1.10;;
57313;SDS011;53202;50.976;18.216;2022-07-03T10:16:48;1.70;;;1.10;;
57313;SDS011;53202;50.976;18.216;2022-07-03T10:19:29;3.10;;;1.40;;
57313;SDS011;53202;50.976;18.216;2022-07-03T10:22:09;3.90;;;1.50;;
57313;SDS011;53202;50.976;18.216;2022-07-03T10:24:59;2.40;;;1.30;;
57313;SDS011;53202;50.976;18.216;2022-07-03T10:27:39;4.30;;;1.20;;
57313;SDS011;53202;50.976;18.216;2022-07-03T10:30:20;2.40;;;1.30;;
57313;SDS011;53202;50.976;18.216;2022-07-03T10:33:00;2.30;;;1.10;;
57313;SDS011;53202;50.976;18.216;2022-07-03T10:35:42;1.80;;;1.10;;
57313;SDS011;53202;50.976;18.216;2022-07-03T10:47:42;2.20;;;1.40;;
57313;SDS011;53202;50.976;18.216;2022-07-03T10:50:22;1.40;;;1.20;;
57313;SDS011;53202;50.976;18.216;2022-07-03T10:56:03;6.60;;;1.60;;
57313;SDS011;53202;50.976;18.216;2022-07-03T10:58:57;2.40;;;1.20;;
57313;SDS011;53202;50.976;18.216;2022-07-03T11:01:43;4.80;;;1.20;;
57313;SDS011;53202;50.976;18.216;2022-07-03T11:04:23;1.60;;;1.10;;
57313;SDS011;53202;50.976;18.216;2022-07-03T11:07:09;5.80;;;1.40;;
57313;SDS011;53202;50.976;18.216;2022-07-03T11:10:37;2.80;;;1.40;;
57313;SDS011;53202;50.976;18.216;2022-07-03T11:13:06;2.90;;;1.30;;
57313;SDS011;53202;50.976;18.216;2022-07-03T11:15:47;4.90;;;1.70;;
57313;SDS011;53202;50.976;18.216;2022-07-03T11:18:27;2.70;;;1.40;;
57313;SDS011;53202;50.976;18.216;2022-07-03T11:21:11;2.80;;;1.50;;
57313;SDS011;53202;50.976;18.216;2022-07-03T11:27:11;2.70;;;1.50;;
57313;SDS011;53202;50.976;18.216;2022-07-03T11:29:57;3.60;;;1.30;;
57313;SDS011;53202;50.976;18.216;2022-07-03T11:32:52;2.20;;;1.20;;
57313;SDS011;53202;50.976;18.216;2022-07-03T11:35:52;4.00;;;2.10;;
57313;SDS011;53202;50.976;18.216;2022-07-03T11:38:37;2.40;;;1.20;;
57313;SDS011;53202;50.976;18.216;2022-07-03T11:41:17;1.90;;;1.40;;
57313;SDS011;53202;50.976;18.216;2022-07-03T11:43:59;2.80;;;1.30;;
57313;SDS011;53202;50.976;18.216;2022-07-03T11:46:38;2.90;;;1.30;;
57313;SDS011;53202;50.976;18.216;2022-07-03T11:49:19;1.90;;;1.20;;
57313;SDS011;53202;50.976;18.216;2022-07-03T11:51:59;2.80;;;1.30;;
57313;SDS011;53202;50.976;18.216;2022-07-03T11:54:54;1.60;;;1.20;;
57313;SDS011;53202;50.976;18.216;2022-07-03T11:57:48;2.90;;;1.40;;
57313;SDS011;53202;50.976;18.216;2022-07-03T12:00:29;3.30;;;1.30;;
57313;SDS011;53202;50.976;18.216;2022-07-03T12:03:15;2.50;;;1.30;;
57313;SDS011;53202;50.976;18.216;2022-07-03T12:06:00;6.40;;;1.30;;
57313;SDS011;53202;50.976;18.216;2022-07-03T12:08:41;2.90;;;1.30;;
57313;SDS011;53202;50.976;18.216;2022-07-03T12:11:21;1.90;;;1.30;;
57313;SDS011;53202;50.976;18.216;2022-07-03T12:14:01;2.10;;;1.20;;
57313;SDS011;53202;50.976;18.216;2022-07-03T12:16:41;4.10;;;1.40;;
57313;SDS011;53202;50.976;18.216;2022-07-03T12:19:22;1.50;;;1.20;;
57313;SDS011;53202;50.976;18.216;2022-07-03T12:22:02;2.30;;;1.30;;
57313;SDS011;53202;50.976;18.216;2022-07-03T12:24:42;2.20;;;1.20;;
57313;SDS011;53202;50.976;18.216;2022-07-03T12:27:34;1.90;;;1.20;;
57313;SDS011;53202;50.976;18.216;2022-07-03T12:30:21;2.00;;;1.40;;
57313;SDS011;53202;50.976;18.216;2022-07-03T12:33:03;2.10;;;1.10;;
57313;SDS011;53202;50.976;18.216;2022-07-03T12:35:43;2.60;;;1.30;;
57313;SDS011;53202;50.976;18.216;2022-07-03T12:38:31;5.70;;;1.80;;
57313;SDS011;53202;50.976;18.216;2022-07-03T12:41:14;2.20;;;1.50;;
57313;SDS011;53202;50.976;18.216;2022-07-03T12:43:55;2.60;;;1.50;;
57313;SDS011;53202;50.976;18.216;2022-07-03T12:46:35;2.10;;;1.30;;
57313;SDS011;53202;50.976;18.216;2022-07-03T12:49:16;3.30;;;1.10;;
57313;SDS011;53202;50.976;18.216;2022-07-03T12:51:57;2.70;;;1.40;;
57313;SDS011;53202;50.976;18.216;2022-07-03T12:54:36;2.40;;;1.30;;
57313;SDS011;53202;50.976;18.216;2022-07-03T12:57:16;1.80;;;1.10;;
57313;SDS011;53202;50.976;18.216;2022-07-03T13:00:17;3.50;;;1.20;;
57313;SDS011;53202;50.976;18.216;2022-07-03T13:02:57;3.00;;;1.60;;
57313;SDS011;53202;50.976;18.216;2022-07-03T13:05:41;1.80;;;1.30;;
57313;SDS011;53202;50.976;18.216;2022-07-03T13:08:17;3.30;;;1.80;;
57313;SDS011;53202;50.976;18.216;2022-07-03T13:10:58;1.40;;;1.30;;
57313;SDS011;53202;50.976;18.216;2022-07-03T13:13:45;2.70;;;1.60;;
57313;SDS011;53202;50.976;18.216;2022-07-03T13:16:28;2.60;;;1.30;;
57313;SDS011;53202;50.976;18.216;2022-07-03T13:19:09;2.80;;;1.50;;
57313;SDS011;53202;50.976;18.216;2022-07-03T13:21:49;2.40;;;1.80;;
57313;SDS011;53202;50.976;18.216;2022-07-03T13:24:29;2.10;;;1.40;;
57313;SDS011;53202;50.976;18.216;2022-07-03T13:27:09;2.40;;;1.70;;
57313;SDS011;53202;50.976;18.216;2022-07-03T13:29:50;5.90;;;1.80;;
57313;SDS011;53202;50.976;18.216;2022-07-03T13:32:30;2.60;;;1.60;;
57313;SDS011;53202;50.976;18.216;2022-07-03T13:35:10;5.00;;;1.80;;
57313;SDS011;53202;50.976;18.216;2022-07-03T13:37:50;2.30;;;1.70;;
57313;SDS011;53202;50.976;18.216;2022-07-03T13:40:31;1.80;;;1.60;;
57313;SDS011;53202;50.976;18.216;2022-07-03T13:43:11;2.20;;;1.60;;
57313;SDS011;53202;50.976;18.216;2022-07-03T13:45:51;3.40;;;1.70;;
57313;SDS011;53202;50.976;18.216;2022-07-03T13:48:32;3.80;;;1.70;;
57313;SDS011;53202;50.976;18.216;2022-07-03T13:51:12;1.70;;;1.60;;
57313;SDS011;53202;50.976;18.216;2022-07-03T13:53:52;2.30;;;1.60;;
57313;SDS011;53202;50.976;18.216;2022-07-03T13:56:33;2.00;;;1.40;;
57313;SDS011;53202;50.976;18.216;2022-07-03T13:59:13;2.90;;;1.50;;
57313;SDS011;53202;50.976;18.216;2022-07-03T14:01:55;4.80;;;1.50;;
57313;SDS011;53202;50.976;18.216;2022-07-03T14:04:34;2.30;;;1.60;;
57313;SDS011;53202;50.976;18.216;2022-07-03T14:07:14;3.40;;;1.70;;
57313;SDS011;53202;50.976;18.216;2022-07-03T14:09:54;1.60;;;1.40;;
57313;SDS011;53202;50.976;18.216;2022-07-03T14:12:34;1.40;;;1.30;;
57313;SDS011;53202;50.976;18.216;2022-07-03T14:15:18;1.60;;;1.30;;
57313;SDS011;53202;50.976;18.216;2022-07-03T14:17:55;2.60;;;1.50;;
57313;SDS011;53202;50.976;18.216;2022-07-03T14:20:35;1.70;;;1.50;;
57313;SDS011;53202;50.976;18.216;2022-07-03T14:23:15;1.50;;;1.40;;
57313;SDS011;53202;50.976;18.216;2022-07-03T14:25:56;2.90;;;1.80;;
57313;SDS011;53202;50.976;18.216;2022-07-03T14:28:36;5.90;;;1.40;;
57313;SDS011;53202;50.976;18.216;2022-07-03T14:31:36;2.30;;;1.60;;
57313;SDS011;53202;50.976;18.216;2022-07-03T14:34:37;3.10;;;1.60;;
57313;SDS011;53202;50.976;18.216;2022-07-03T14:37:17;3.40;;;1.80;;
57313;SDS011;53202;50.976;18.216;2022-07-03T14:39:57;1.90;;;1.60;;
57313;SDS011;53202;50.976;18.216;2022-07-03T14:42:38;2.70;;;1.90;;
57313;SDS011;53202;50.976;18.216;2022-07-03T14:45:18;2.10;;;1.40;;
57313;SDS011;53202;50.976;18.216;2022-07-03T14:47:58;1.80;;;1.50;;
57313;SDS011;53202;50.976;18.216;2022-07-03T14:50:38;2.80;;;1.60;;
57313;SDS011;53202;50.976;18.216;2022-07-03T14:53:19;3.70;;;1.70;;
57313;SDS011;53202;50.976;18.216;2022-07-03T14:55:59;1.90;;;1.80;;
57313;SDS011;53202;50.976;18.216;2022-07-03T14:58:39;3.20;;;1.70;;
57313;SDS011;53202;50.976;18.216;2022-07-03T15:01:20;2.20;;;1.40;;
57313;SDS011;53202;50.976;18.216;2022-07-03T15:04:01;3.10;;;1.80;;
57313;SDS011;53202;50.976;18.216;2022-07-03T15:06:40;1.60;;;1.40;;
57313;SDS011;53202;50.976;18.216;2022-07-03T15:09:24;2.80;;;1.40;;
57313;SDS011;53202;50.976;18.216;2022-07-03T15:12:11;2.50;;;1.80;;
57313;SDS011;53202;50.976;18.216;2022-07-03T15:15:13;2.50;;;1.60;;
57313;SDS011;53202;50.976;18.216;2022-07-03T15:17:52;1.50;;;1.40;;
57313;SDS011;53202;50.976;18.216;2022-07-03T15:20:33;6.40;;;1.70;;
57313;SDS011;53202;50.976;18.216;2022-07-03T15:23:13;3.50;;;1.70;;
57313;SDS011;53202;50.976;18.216;2022-07-03T15:25:53;1.60;;;1.50;;
57313;SDS011;53202;50.976;18.216;2022-07-03T15:28:34;5.20;;;1.30;;
57313;SDS011;53202;50.976;18.216;2022-07-03T15:31:14;1.70;;;1.50;;
57313;SDS011;53202;50.976;18.216;2022-07-03T15:33:55;1.80;;;1.40;;
57313;SDS011;53202;50.976;18.216;2022-07-03T15:36:37;1.90;;;1.30;;
57313;SDS011;53202;50.976;18.216;2022-07-03T15:39:17;1.80;;;1.60;;
57313;SDS011;53202;50.976;18.216;2022-07-03T15:42:00;2.10;;;1.60;;
57313;SDS011;53202;50.976;18.216;2022-07-03T15:44:49;2.10;;;1.80;;
57313;SDS011;53202;50.976;18.216;2022-07-03T15:47:31;1.90;;;1.40;;
57313;SDS011;53202;50.976;18.216;2022-07-03T15:50:20;1.60;;;1.30;;
57313;SDS011;53202;50.976;18.216;2022-07-03T15:53:08;2.30;;;1.60;;
57313;SDS011;53202;50.976;18.216;2022-07-03T15:55:47;2.90;;;1.70;;
57313;SDS011;53202;50.976;18.216;2022-07-03T15:58:28;2.20;;;1.60;;
57313;SDS011;53202;50.976;18.216;2022-07-03T16:01:09;2.10;;;1.60;;
57313;SDS011;53202;50.976;18.216;2022-07-03T16:04:10;1.90;;;1.40;;
57313;SDS011;53202;50.976;18.216;2022-07-03T16:06:48;2.40;;;1.50;;
57313;SDS011;53202;50.976;18.216;2022-07-03T16:09:28;2.20;;;1.60;;
57313;SDS011;53202;50.976;18.216;2022-07-03T16:12:09;2.60;;;1.50;;
57313;SDS011;53202;50.976;18.216;2022-07-03T16:14:59;2.00;;;1.40;;
57313;SDS011;53202;50.976;18.216;2022-07-03T16:17:39;2.90;;;1.30;;
57313;SDS011;53202;50.976;18.216;2022-07-03T16:20:21;2.60;;;1.70;;
57313;SDS011;53202;50.976;18.216;2022-07-03T16:23:03;2.80;;;1.50;;
57313;SDS011;53202;50.976;18.216;2022-07-03T16:25:43;3.10;;;1.80;;